createdAt,value
2018-02-19T00:01:30.607Z,62.90
2018-02-19T00:03:59.952Z,62.70
2018-02-19T00:06:29.993Z,63.00
2018-02-19T00:08:59.434Z,62.50
2018-02-19T00:11:29.852Z,64.00
2018-02-19T00:13:59.242Z,64.00
2018-02-19T00:16:28.771Z,63.00
2018-02-19T00:18:58.985Z,63.70
2018-02-19T00:21:28.706Z,63.70
2018-02-19T00:23:57.940Z,63.60
2018-02-19T00:26:27.403Z,64.20
2018-02-19T00:28:57.875Z,63.50
2018-02-19T00:31:27.628Z,63.40
2018-02-19T00:33:56.977Z,64.20
2018-02-19T00:36:26.509Z,63.60
2018-02-19T00:38:55.742Z,64.60
2018-02-19T00:41:25.083Z,63.50
2018-02-19T00:43:54.313Z,63.10
2018-02-19T00:46:23.738Z,62.60
2018-02-19T00:48:52.961Z,62.40
2018-02-19T00:51:22.346Z,59.80
2018-02-19T00:53:51.579Z,63.60
2018-02-19T00:56:21.028Z,62.50
2018-02-19T00:58:50.273Z,62.90
2018-02-19T01:01:20.117Z,63.40
2018-02-19T01:03:49.560Z,64.00
2018-02-19T01:06:18.790Z,64.00
2018-02-19T01:08:48.168Z,62.70
2018-02-19T01:11:17.410Z,63.80
2018-02-19T01:13:46.794Z,63.10
2018-02-19T01:16:16.793Z,62.00
2018-02-19T01:18:46.923Z,59.60
2018-02-19T01:21:16.862Z,59.50
2018-02-19T01:23:46.220Z,62.10
2018-02-19T01:26:15.452Z,63.70
2018-02-19T01:28:44.787Z,63.30
2018-02-19T01:31:14.015Z,63.00
2018-02-19T01:33:43.441Z,62.70
2018-02-19T01:36:13.005Z,63.70
2018-02-19T01:38:42.428Z,64.30
2018-02-19T01:41:11.688Z,62.10
2018-02-19T01:43:41.132Z,61.30
2018-02-19T01:46:10.559Z,62.70
2018-02-19T01:48:40.190Z,63.20
2018-02-19T01:51:09.629Z,61.60
2018-02-19T01:53:38.873Z,61.60
2018-02-19T01:56:08.352Z,63.00
2018-02-19T01:58:37.589Z,62.90
2018-02-19T02:01:06.944Z,62.80
2018-02-19T02:03:36.257Z,62.10
2018-02-19T02:06:05.765Z,62.90
2018-02-19T02:08:35.768Z,63.10
2018-02-19T02:11:06.009Z,62.60
2018-02-19T02:13:35.236Z,62.50
2018-02-19T02:16:04.610Z,61.90
2018-02-19T02:18:33.840Z,62.60
2018-02-19T02:21:03.206Z,63.40
2018-02-19T02:23:32.560Z,63.60
2018-02-19T02:26:02.421Z,61.70
2018-02-19T02:28:31.804Z,62.60
2018-02-19T02:31:02.052Z,61.80
2018-02-19T02:33:31.276Z,63.40
2018-02-19T02:36:01.301Z,63.30
2018-02-19T02:38:30.768Z,64.80
2018-02-19T02:41:00.001Z,62.90
2018-02-19T02:43:29.373Z,61.70
2018-02-19T02:45:58.606Z,65.60
2018-02-19T02:48:27.990Z,65.60
2018-02-19T02:50:57.205Z,64.10
2018-02-19T02:53:26.582Z,64.00
2018-02-19T02:55:56.081Z,63.50
2018-02-19T02:58:25.588Z,63.50
2018-02-19T03:00:54.825Z,63.50
2018-02-19T03:03:24.804Z,63.00
2018-02-19T03:05:54.352Z,63.70
2018-02-19T03:08:24.420Z,63.30
2018-02-19T03:10:53.684Z,63.20
2018-02-19T03:13:23.033Z,64.00
2018-02-19T03:15:52.361Z,62.80
2018-02-19T03:18:21.847Z,61.90
2018-02-19T03:20:51.078Z,63.40
2018-02-19T03:23:20.303Z,62.10
2018-02-19T03:25:49.750Z,63.30
2018-02-19T03:28:19.965Z,63.40
2018-02-19T03:30:50.803Z,61.60
2018-02-19T03:33:20.029Z,61.50
2018-02-19T03:35:49.402Z,63.20
2018-02-19T03:38:18.636Z,62.10
2018-02-19T03:40:48.012Z,60.70
2018-02-19T03:43:17.240Z,62.40
2018-02-19T03:45:46.600Z,61.40
2018-02-19T03:48:15.834Z,62.00
2018-02-19T03:50:45.616Z,62.10
2018-02-19T03:53:14.844Z,60.60
2018-02-19T03:55:44.220Z,60.60
2018-02-19T03:58:13.444Z,62.00
2018-02-19T04:00:43.185Z,60.80
2018-02-19T04:03:12.532Z,61.40
2018-02-19T04:05:42.666Z,59.90
2018-02-19T04:08:12.765Z,61.70
2018-02-19T04:10:42.000Z,61.70
2018-02-19T04:13:11.380Z,61.70
2018-02-19T04:15:41.376Z,60.80
2018-02-19T04:18:10.693Z,61.20
2018-02-19T04:20:39.617Z,62.50
2018-02-19T04:23:09.061Z,61.50
2018-02-19T04:25:38.301Z,62.10
2018-02-19T04:28:08.373Z,60.80
2018-02-19T04:30:37.592Z,60.80
2018-02-19T04:33:07.025Z,61.10
2018-02-19T04:35:36.942Z,62.80
2018-02-19T04:38:07.036Z,61.60
2018-02-19T04:40:36.376Z,61.60
2018-02-19T04:43:08.505Z,61.70
2018-02-19T04:45:40.548Z,61.70
2018-02-19T04:48:10.063Z,62.50
2018-02-19T04:50:39.305Z,60.50
2018-02-19T04:53:09.400Z,62.60
2018-02-19T04:55:38.636Z,62.60
2018-02-19T04:58:08.004Z,63.00
2018-02-19T05:00:37.228Z,61.80
2018-02-19T05:03:07.222Z,62.40
2018-02-19T05:05:36.732Z,62.40
2018-02-19T05:08:05.978Z,62.80
2018-02-19T05:10:35.321Z,62.20
2018-02-19T05:13:04.555Z,62.50
2018-02-19T05:15:33.919Z,62.90
2018-02-19T05:18:03.161Z,61.20
2018-02-19T05:20:32.604Z,62.00
2018-02-19T05:23:01.940Z,59.90
2018-02-19T05:25:31.329Z,59.50
2018-02-19T05:28:00.720Z,61.00
2018-02-19T05:30:30.144Z,59.60
2018-02-19T05:32:59.373Z,61.80
2018-02-19T05:35:28.745Z,60.80
2018-02-19T05:37:58.001Z,63.30
2018-02-19T05:40:27.338Z,60.90
2018-02-19T05:42:58.060Z,61.60
2018-02-19T05:45:27.617Z,60.40
2018-02-19T05:47:56.818Z,62.30
2018-02-19T05:50:26.169Z,62.70
2018-02-19T05:52:55.391Z,61.90
2018-02-19T05:55:24.630Z,62.70
2018-02-19T05:57:54.093Z,61.90
2018-02-19T06:00:23.576Z,63.80
2018-02-19T06:02:53.100Z,62.90
2018-02-19T06:05:23.641Z,62.10
2018-02-19T06:07:53.131Z,62.70
2018-02-19T06:10:22.596Z,62.50
2018-02-19T06:12:51.939Z,62.80
2018-02-19T06:15:21.171Z,62.90
2018-02-19T06:17:50.487Z,61.00
2018-02-19T06:20:19.713Z,61.80
2018-02-19T06:22:49.077Z,63.00
2018-02-19T06:25:18.324Z,62.40
2018-02-19T06:27:47.703Z,62.50
2018-02-19T06:30:16.928Z,62.50
2018-02-19T06:32:46.350Z,61.90
2018-02-19T06:35:16.200Z,62.80
2018-02-19T06:37:45.564Z,63.50
2018-02-19T06:40:14.797Z,63.70
2018-02-19T06:42:44.020Z,62.50
2018-02-19T06:45:13.478Z,62.80
2018-02-19T06:47:42.709Z,59.60
2018-02-19T06:50:12.080Z,63.10
2018-02-19T06:52:41.509Z,61.30
2018-02-19T06:55:10.869Z,62.40
2018-02-19T06:57:40.484Z,63.80
2018-02-19T07:00:09.915Z,62.00
2018-02-19T07:02:39.112Z,61.60
2018-02-19T07:05:09.114Z,62.80
2018-02-19T07:07:39.694Z,60.10
2018-02-19T07:10:09.136Z,60.00
2018-02-19T07:12:38.636Z,62.00
2018-02-19T07:15:07.881Z,59.20
2018-02-19T07:17:37.256Z,60.50
2018-02-19T07:20:06.473Z,59.30
2018-02-19T07:22:35.841Z,60.50
2018-02-19T07:25:05.092Z,61.70
2018-02-19T07:27:34.374Z,60.10
2018-02-19T07:30:03.665Z,60.20
2018-02-19T07:32:32.955Z,58.90
2018-02-19T07:35:02.177Z,60.40
2018-02-19T07:37:31.495Z,59.30
2018-02-19T07:40:00.721Z,59.30
2018-02-19T07:42:30.052Z,59.70
2018-02-19T07:44:59.300Z,60.40
2018-02-19T07:47:28.689Z,61.40
2018-02-19T07:49:57.924Z,58.90
2018-02-19T07:52:27.112Z,61.10
2018-02-19T07:54:56.432Z,59.50
2018-02-19T07:57:25.667Z,59.90
2018-02-19T07:59:55.755Z,60.50
2018-02-19T08:02:24.998Z,60.60
2018-02-19T08:04:54.308Z,59.40
2018-02-19T08:07:23.568Z,57.50
2018-02-19T08:09:52.908Z,59.40
2018-02-19T08:12:22.145Z,59.30
2018-02-19T08:14:52.236Z,59.00
2018-02-19T08:17:21.477Z,57.50
2018-02-19T08:19:50.795Z,58.80
2018-02-19T08:22:20.027Z,56.30
2018-02-19T08:24:49.321Z,56.90
2018-02-19T08:27:18.588Z,56.80
2018-02-19T08:29:47.889Z,56.90
2018-02-19T08:32:17.149Z,56.70
2018-02-19T08:34:46.523Z,56.60
2018-02-19T08:37:15.765Z,56.00
2018-02-19T08:39:44.992Z,56.90
2018-02-19T08:42:14.305Z,55.40
2018-02-19T08:44:44.312Z,55.50
2018-02-19T08:47:13.653Z,55.40
2018-02-19T08:49:42.884Z,55.00
2018-02-19T08:52:12.198Z,54.70
2018-02-19T08:54:41.433Z,54.50
2018-02-19T08:57:11.524Z,53.50
2018-02-19T08:59:40.753Z,53.50
2018-02-19T09:02:10.067Z,54.00
2018-02-19T09:04:39.293Z,54.30
2018-02-19T09:07:08.615Z,53.00
2018-02-19T09:09:37.863Z,53.70
2018-02-19T09:12:07.948Z,53.90
2018-02-19T09:14:37.231Z,53.80
2018-02-19T09:17:06.282Z,54.20
2018-02-19T09:19:35.509Z,53.90
2018-02-19T09:22:04.757Z,53.00
2018-02-19T09:24:34.882Z,54.40
2018-02-19T09:27:04.097Z,54.50
2018-02-19T09:29:33.401Z,54.50
2018-02-19T09:32:02.633Z,54.20
2018-02-19T09:34:31.958Z,53.80
2018-02-19T09:37:01.241Z,53.80
2018-02-19T09:39:30.583Z,53.60
2018-02-19T09:41:59.818Z,53.70
2018-02-19T09:44:29.140Z,54.50
2018-02-19T09:46:58.438Z,53.90
2018-02-19T09:49:27.753Z,53.00
2018-02-19T09:51:56.984Z,54.40
2018-02-19T09:54:27.131Z,53.00
2018-02-19T09:56:56.388Z,52.90
2018-02-19T09:59:25.613Z,52.70
2018-02-19T10:01:54.929Z,53.40
2018-02-19T10:04:24.190Z,53.40
2018-02-19T10:06:53.510Z,52.70
2018-02-19T10:09:22.744Z,54.00
2018-02-19T10:11:52.065Z,52.60
2018-02-19T10:14:21.306Z,51.70
2018-02-19T10:16:51.384Z,51.50
2018-02-19T10:19:20.625Z,51.50
2018-02-19T10:21:49.945Z,51.90
2018-02-19T10:24:19.229Z,53.10
2018-02-19T10:26:48.517Z,51.80
2018-02-19T10:29:17.744Z,51.10
2018-02-19T10:31:47.097Z,49.90
2018-02-19T10:34:16.350Z,49.50
2018-02-19T10:36:46.320Z,50.70
2018-02-19T10:39:15.633Z,50.70
2018-02-19T10:41:44.861Z,50.70
2018-02-19T10:44:14.181Z,50.20
2018-02-19T10:46:43.446Z,50.40
2018-02-19T10:49:12.746Z,50.80
2018-02-19T10:51:42.765Z,50.90
2018-02-19T10:54:12.098Z,50.90
2018-02-19T10:56:41.328Z,52.10
2018-02-19T10:59:10.648Z,50.70
2018-02-19T11:01:40.264Z,52.60
2018-02-19T11:04:09.558Z,51.20
2018-02-19T11:06:38.800Z,51.40
2018-02-19T11:09:09.609Z,51.50
2018-02-19T11:11:39.703Z,51.50
2018-02-19T11:14:08.938Z,51.50
2018-02-19T11:16:38.253Z,52.60
2018-02-19T11:19:07.477Z,52.40
2018-02-19T11:21:36.831Z,51.90
2018-02-19T11:24:06.058Z,51.70
2018-02-19T11:26:35.376Z,52.20
2018-02-19T11:29:04.631Z,55.00
2018-02-19T11:31:34.708Z,51.30
2018-02-19T11:34:03.950Z,51.30
2018-02-19T11:36:33.316Z,52.80
2018-02-19T11:39:02.553Z,51.80
2018-02-19T11:41:31.882Z,50.10
2018-02-19T11:44:01.117Z,50.20
2018-02-19T11:46:30.351Z,50.60
2018-02-19T11:49:00.433Z,49.10
2018-02-19T11:51:29.665Z,49.00
2018-02-19T11:53:58.976Z,49.50
2018-02-19T11:56:28.217Z,48.90
2018-02-19T11:58:57.525Z,48.10
2018-02-19T12:01:26.754Z,48.60
2018-02-19T12:03:56.060Z,48.40
2018-02-19T12:06:25.284Z,47.70
2018-02-19T12:08:55.487Z,48.30
2018-02-19T12:11:25.480Z,48.70
2018-02-19T12:13:54.812Z,48.00
2018-02-19T12:16:24.075Z,46.90
2018-02-19T12:18:53.284Z,47.00
2018-02-19T12:21:22.601Z,47.70
2018-02-19T12:23:52.015Z,48.30
2018-02-19T12:26:21.283Z,48.70
2018-02-19T12:28:50.517Z,46.30
2018-02-19T12:31:20.605Z,47.50
2018-02-19T12:33:49.836Z,47.40
2018-02-19T12:36:19.169Z,47.10
2018-02-19T12:38:48.403Z,46.90
2018-02-19T12:41:17.716Z,48.20
2018-02-19T12:43:46.961Z,47.10
2018-02-19T12:46:16.292Z,47.50
2018-02-19T12:48:45.489Z,47.50
2018-02-19T12:51:14.861Z,48.40
2018-02-19T12:53:44.176Z,47.00
2018-02-19T12:56:13.421Z,47.60
2018-02-19T12:58:42.744Z,47.80
2018-02-19T13:01:12.739Z,47.80
2018-02-19T13:03:42.059Z,47.80
2018-02-19T13:06:12.050Z,47.70
2018-02-19T13:08:41.404Z,47.00
2018-02-19T13:11:10.641Z,47.70
2018-02-19T13:13:39.952Z,48.80
2018-02-19T13:16:09.184Z,48.50
2018-02-19T13:18:38.512Z,48.60
2018-02-19T13:21:07.772Z,48.30
2018-02-19T13:23:37.064Z,49.30
2018-02-19T13:26:06.285Z,48.30
2018-02-19T13:28:36.384Z,48.40
2018-02-19T13:31:05.621Z,48.40
2018-02-19T13:33:34.934Z,49.50
2018-02-19T13:36:04.156Z,48.90
2018-02-19T13:38:33.525Z,47.40
2018-02-19T13:41:02.806Z,48.10
2018-02-19T13:43:32.783Z,48.60
2018-02-19T13:46:02.097Z,50.40
2018-02-19T13:48:31.318Z,50.80
2018-02-19T13:51:00.631Z,49.80
2018-02-19T13:53:29.870Z,49.00
2018-02-19T13:55:59.178Z,48.40
2018-02-19T13:58:28.405Z,48.00
2018-02-19T14:00:57.728Z,49.60
2018-02-19T14:03:26.957Z,47.90
2018-02-19T14:05:56.830Z,48.40
2018-02-19T14:08:26.249Z,49.00
2018-02-19T14:10:55.559Z,49.00
2018-02-19T14:13:24.789Z,48.80
2018-02-19T14:15:54.217Z,49.20
2018-02-19T14:18:23.450Z,49.20
2018-02-19T14:20:52.689Z,49.40
2018-02-19T14:23:22.045Z,49.30
2018-02-19T14:25:51.268Z,49.40
2018-02-19T14:28:20.582Z,49.50
2018-02-19T14:30:49.985Z,49.60
2018-02-19T14:33:19.312Z,49.00
2018-02-19T14:35:48.559Z,47.60
2018-02-19T14:38:17.877Z,48.10
2018-02-19T14:40:47.145Z,48.50
2018-02-19T14:43:16.463Z,47.30
2018-02-19T14:45:45.956Z,47.30
2018-02-19T14:48:15.295Z,47.30
2018-02-19T14:50:44.532Z,47.90
2018-02-19T14:53:13.758Z,48.20
2018-02-19T14:55:43.886Z,47.60
2018-02-19T14:58:13.883Z,48.50
2018-02-19T15:00:43.191Z,48.50
2018-02-19T15:03:12.449Z,48.40
2018-02-19T15:05:41.796Z,48.00
2018-02-19T15:08:11.029Z,48.50
2018-02-19T15:10:40.374Z,48.50
2018-02-19T15:13:09.730Z,49.30
2018-02-19T15:15:39.293Z,49.50
2018-02-19T15:18:09.305Z,50.30
2018-02-19T15:20:38.717Z,50.30
2018-02-19T15:23:07.944Z,50.70
2018-02-19T15:25:37.269Z,50.60
2018-02-19T15:28:06.516Z,51.20
2018-02-19T15:30:35.784Z,50.80
2018-02-19T15:33:05.145Z,50.80
2018-02-19T15:35:34.372Z,50.90
2018-02-19T15:38:03.809Z,51.40
2018-02-19T15:40:33.030Z,52.20
2018-02-19T15:43:02.351Z,52.10
2018-02-19T15:45:31.574Z,52.20
2018-02-19T15:48:01.440Z,52.20
2018-02-19T15:50:30.657Z,52.80
2018-02-19T15:53:00.105Z,52.80
2018-02-19T15:55:29.342Z,53.40
2018-02-19T15:57:59.458Z,53.30
2018-02-19T16:00:29.462Z,53.90
2018-02-19T16:03:00.288Z,54.10
2018-02-19T16:05:29.532Z,54.10
2018-02-19T16:07:58.912Z,54.20
2018-02-19T16:10:28.977Z,54.40
2018-02-19T16:12:59.018Z,54.40
2018-02-19T16:15:28.244Z,55.00
2018-02-19T16:17:57.481Z,55.00
2018-02-19T16:20:26.825Z,55.30
2018-02-19T16:22:56.057Z,55.50
2018-02-19T16:25:25.448Z,56.10
2018-02-19T16:27:54.679Z,56.30
2018-02-19T16:30:24.001Z,56.20
2018-02-19T16:32:53.243Z,56.40
2018-02-19T16:35:24.102Z,56.90
2018-02-19T16:37:54.096Z,57.30
2018-02-19T16:40:23.407Z,57.30
2018-02-19T16:42:52.636Z,57.20
2018-02-19T16:45:21.973Z,57.30
2018-02-19T16:47:51.642Z,57.20
2018-02-19T16:50:21.534Z,57.40
2018-02-19T16:52:50.830Z,57.30
2018-02-19T16:55:20.825Z,57.80
2018-02-19T16:57:50.145Z,58.30
2018-02-19T17:00:20.877Z,58.70
2018-02-19T17:02:50.500Z,58.70
2018-02-19T17:05:19.724Z,58.20
2018-02-19T17:07:48.957Z,58.30
2018-02-19T17:10:18.268Z,57.60
2018-02-19T17:12:47.984Z,58.30
2018-02-19T17:15:17.393Z,57.70
2018-02-19T17:17:46.618Z,58.20
2018-02-19T17:20:16.693Z,57.60
2018-02-19T17:22:45.920Z,57.60
2018-02-19T17:25:15.362Z,57.50
2018-02-19T17:27:44.601Z,57.70
2018-02-19T17:30:13.993Z,57.80
2018-02-19T17:32:43.219Z,57.90
2018-02-19T17:35:13.471Z,57.40
2018-02-19T17:37:43.561Z,57.30
2018-02-19T17:40:12.780Z,57.30
2018-02-19T17:42:42.098Z,57.50
2018-02-19T17:45:11.338Z,58.30
2018-02-19T17:47:40.648Z,58.50
2018-02-19T17:50:09.886Z,58.10
2018-02-19T17:52:39.986Z,58.60
2018-02-19T17:55:09.217Z,58.60
2018-02-19T17:57:38.604Z,58.50
2018-02-19T18:00:08.600Z,59.20
2018-02-19T18:02:37.938Z,59.10
2018-02-19T18:05:07.158Z,60.00
2018-02-19T18:07:36.984Z,59.80
2018-02-19T18:10:06.278Z,59.70
2018-02-19T18:12:35.501Z,59.50
2018-02-19T18:15:05.239Z,59.50
2018-02-19T18:17:34.457Z,59.80
2018-02-19T18:20:04.355Z,60.10
2018-02-19T18:22:33.577Z,60.30
2018-02-19T18:25:02.944Z,59.00
2018-02-19T18:27:32.165Z,58.50
2018-02-19T18:30:01.395Z,59.00
2018-02-19T18:32:30.717Z,59.20
2018-02-19T18:34:59.957Z,58.20
2018-02-19T18:37:30.033Z,59.10
2018-02-19T18:39:59.311Z,59.10
2018-02-19T18:42:28.678Z,58.70
2018-02-19T18:44:58.680Z,58.80
2018-02-19T18:47:28.032Z,58.80
2018-02-19T18:49:57.266Z,59.40
2018-02-19T18:52:26.723Z,59.60
2018-02-19T18:54:57.419Z,59.20
2018-02-19T18:57:27.533Z,59.50
2018-02-19T18:59:56.907Z,59.40
2018-02-19T19:02:26.005Z,60.00
2018-02-19T19:04:55.433Z,60.30
2018-02-19T19:07:42.511Z,60.50
2018-02-19T19:10:29.381Z,62.00
2018-02-19T19:12:59.488Z,62.50
2018-02-19T19:15:28.777Z,62.50
2018-02-19T19:17:58.109Z,61.50
2018-02-19T19:20:29.642Z,63.50
2018-02-19T19:22:59.475Z,63.50
2018-02-19T19:25:28.880Z,63.50
2018-02-19T19:27:58.085Z,62.30
2018-02-19T19:30:28.405Z,62.10
2018-02-19T19:32:57.613Z,62.00
2018-02-19T19:35:26.958Z,63.80
2018-02-19T19:37:56.228Z,62.70
2018-02-19T19:40:25.585Z,62.50
2018-02-19T19:42:54.814Z,62.20
2018-02-19T19:45:24.180Z,62.20
2018-02-19T19:47:53.462Z,62.40
2018-02-19T19:50:22.795Z,62.80
2018-02-19T19:52:52.027Z,63.30
2018-02-19T19:55:21.326Z,64.60
2018-02-19T19:57:50.562Z,63.50
2018-02-19T20:00:19.867Z,64.00
2018-02-19T20:02:49.934Z,64.00
2018-02-19T20:05:20.062Z,64.60
2018-02-19T20:07:49.394Z,64.50
2018-02-19T20:10:18.736Z,66.10
2018-02-19T20:12:49.713Z,65.70
2018-02-19T20:15:19.711Z,65.40
2018-02-19T20:17:49.028Z,65.40
2018-02-19T20:20:18.278Z,65.60
2018-02-19T20:22:47.608Z,66.30
2018-02-19T20:25:16.828Z,67.10
2018-02-19T20:27:46.150Z,67.60
2018-02-19T20:30:15.380Z,66.90
2018-02-19T20:32:44.710Z,67.90
2018-02-19T20:35:14.749Z,67.70
2018-02-19T20:37:44.105Z,67.70
2018-02-19T20:40:13.411Z,67.30
2018-02-19T20:42:42.749Z,67.30
2018-02-19T20:45:12.077Z,65.70
2018-02-19T20:47:41.300Z,66.90
2018-02-19T20:50:10.606Z,66.90
2018-02-19T20:52:39.873Z,66.90
2018-02-19T20:55:09.268Z,66.30
2018-02-19T20:57:38.432Z,66.30
2018-02-19T21:00:07.738Z,67.60
2018-02-19T21:02:37.739Z,67.80
2018-02-19T21:05:07.114Z,67.80
2018-02-19T21:07:36.370Z,67.70
2018-02-19T21:10:06.478Z,67.80
2018-02-19T21:12:36.473Z,66.10
2018-02-19T21:15:05.712Z,66.00
2018-02-19T21:17:35.062Z,67.10
2018-02-19T21:20:04.307Z,66.40
2018-02-19T21:22:33.616Z,66.90
2018-02-19T21:25:02.896Z,67.70
2018-02-19T21:27:33.005Z,66.70
2018-02-19T21:30:02.235Z,66.50
2018-02-19T21:32:31.577Z,66.50
2018-02-19T21:35:00.777Z,66.30
2018-02-19T21:37:30.080Z,67.20
2018-02-19T21:39:59.317Z,66.50
2018-02-19T21:42:29.387Z,66.90
2018-02-19T21:44:58.617Z,66.90
2018-02-19T21:47:27.944Z,66.70
2018-02-19T21:49:57.190Z,66.50
2018-02-19T21:52:26.426Z,67.90
2018-02-19T21:54:55.790Z,68.50
2018-02-19T21:57:25.157Z,68.10
2018-02-19T21:59:54.579Z,68.00
2018-02-19T22:02:23.898Z,68.00
2018-02-19T22:04:53.205Z,68.50
2018-02-19T22:07:22.463Z,68.70
2018-02-19T22:09:51.794Z,69.50
2018-02-19T22:12:21.004Z,69.00
2018-02-19T22:14:50.329Z,68.90
2018-02-19T22:17:19.552Z,69.70
2018-02-19T22:19:48.889Z,70.40
2018-02-19T22:22:18.132Z,71.00
2018-02-19T22:24:47.485Z,71.60
2018-02-19T22:27:16.964Z,70.30
2018-02-19T22:29:46.284Z,70.20
2018-02-19T22:32:15.504Z,70.50
2018-02-19T22:34:44.734Z,71.20
2018-02-19T22:37:14.670Z,71.70
2018-02-19T22:39:44.804Z,71.90
2018-02-19T22:42:14.291Z,72.20
2018-02-19T22:44:44.296Z,71.30
2018-02-19T22:47:14.517Z,71.30
2018-02-19T22:49:43.845Z,71.20
2018-02-19T22:52:14.160Z,70.60
2018-02-19T22:54:44.972Z,71.10
2018-02-19T22:57:14.997Z,71.10
2018-02-19T22:59:44.499Z,72.80
2018-02-19T23:02:13.745Z,71.30
2018-02-19T23:04:43.104Z,71.10
2018-02-19T23:07:12.329Z,71.60
2018-02-19T23:09:41.700Z,71.60
2018-02-19T23:12:11.659Z,72.70
2018-02-19T23:14:40.978Z,71.90
2018-02-19T23:17:10.196Z,72.40
2018-02-19T23:19:39.503Z,73.70
2018-02-19T23:22:08.745Z,73.00
2018-02-19T23:24:38.116Z,73.20
2018-02-19T23:27:07.349Z,73.00
2018-02-19T23:29:37.948Z,72.60
2018-02-19T23:32:07.424Z,73.10
2018-02-19T23:34:36.653Z,74.70
2018-02-19T23:37:06.077Z,73.90
2018-02-19T23:39:36.076Z,72.70
2018-02-19T23:42:05.518Z,72.70
2018-02-19T23:44:34.704Z,72.50
2018-02-19T23:47:04.089Z,72.90
2018-02-19T23:49:34.033Z,73.10
2018-02-19T23:52:03.519Z,74.70
2018-02-19T23:54:35.459Z,74.50
2018-02-19T23:57:04.969Z,74.10
2018-02-19T23:59:34.200Z,74.10
